sensor_id;sensor_type;location;lat;lon;timestamp;P1;durP1;ratioP1;P2;durP2;ratioP2
17727;SDS011;8984;49.268;12.302;2023-07-13T00:02:02;8.88;;;5.25;;
17727;SDS011;8984;49.268;12.302;2023-07-13T00:04:31;8.55;;;4.80;;
17727;SDS011;8984;49.268;12.302;2023-07-13T00:06:58;7.35;;;4.28;;
17727;SDS011;8984;49.268;12.302;2023-07-13T00:09:25;8.77;;;4.10;;
17727;SDS011;8984;49.268;12.302;2023-07-13T00:11:53;7.68;;;4.63;;
17727;SDS011;8984;49.268;12.302;2023-07-13T00:14:22;7.55;;;4.68;;
17727;SDS011;8984;49.268;12.302;2023-07-13T00:16:49;6.28;;;4.57;;
17727;SDS011;8984;49.268;12.302;2023-07-13T00:19:16;7.00;;;4.50;;
17727;SDS011;8984;49.268;12.302;2023-07-13T00:21:45;8.63;;;4.88;;
17727;SDS011;8984;49.268;12.302;2023-07-13T00:24:14;6.90;;;4.40;;
17727;SDS011;8984;49.268;12.302;2023-07-13T00:26:47;8.73;;;4.53;;
17727;SDS011;8984;49.268;12.302;2023-07-13T00:29:15;9.07;;;4.55;;
17727;SDS011;8984;49.268;12.302;2023-07-13T00:31:42;6.50;;;3.97;;
17727;SDS011;8984;49.268;12.302;2023-07-13T00:34:09;8.77;;;4.53;;
17727;SDS011;8984;49.268;12.302;2023-07-13T00:36:36;8.40;;;4.22;;
17727;SDS011;8984;49.268;12.302;2023-07-13T00:39:04;7.35;;;4.35;;
17727;SDS011;8984;49.268;12.302;2023-07-13T00:41:31;6.85;;;4.25;;
17727;SDS011;8984;49.268;12.302;2023-07-13T00:43:58;10.25;;;4.68;;
17727;SDS011;8984;49.268;12.302;2023-07-13T00:46:27;5.38;;;4.43;;
17727;SDS011;8984;49.268;12.302;2023-07-13T00:48:56;8.85;;;4.43;;
17727;SDS011;8984;49.268;12.302;2023-07-13T00:51:27;5.75;;;4.35;;
17727;SDS011;8984;49.268;12.302;2023-07-13T00:53:59;7.30;;;4.30;;
17727;SDS011;8984;49.268;12.302;2023-07-13T00:56:31;9.15;;;4.28;;
17727;SDS011;8984;49.268;12.302;2023-07-13T00:59:00;9.20;;;4.80;;
17727;SDS011;8984;49.268;12.302;2023-07-13T01:01:28;8.30;;;4.80;;
17727;SDS011;8984;49.268;12.302;2023-07-13T01:03:55;8.60;;;4.93;;
17727;SDS011;8984;49.268;12.302;2023-07-13T01:06:23;7.18;;;4.30;;
17727;SDS011;8984;49.268;12.302;2023-07-13T01:08:50;9.85;;;4.70;;
17727;SDS011;8984;49.268;12.302;2023-07-13T01:11:18;8.45;;;4.60;;
17727;SDS011;8984;49.268;12.302;2023-07-13T01:13:48;13.18;;;4.95;;
17727;SDS011;8984;49.268;12.302;2023-07-13T01:16:18;8.32;;;4.18;;
17727;SDS011;8984;49.268;12.302;2023-07-13T01:18:49;10.07;;;4.88;;
17727;SDS011;8984;49.268;12.302;2023-07-13T01:21:18;4.35;;;3.92;;
17727;SDS011;8984;49.268;12.302;2023-07-13T01:23:45;5.57;;;3.90;;
17727;SDS011;8984;49.268;12.302;2023-07-13T01:26:12;10.75;;;4.65;;
17727;SDS011;8984;49.268;12.302;2023-07-13T01:28:39;8.98;;;4.22;;
17727;SDS011;8984;49.268;12.302;2023-07-13T01:31:05;6.35;;;4.50;;
17727;SDS011;8984;49.268;12.302;2023-07-13T01:33:33;6.95;;;4.00;;
17727;SDS011;8984;49.268;12.302;2023-07-13T01:36:00;9.60;;;4.35;;
17727;SDS011;8984;49.268;12.302;2023-07-13T01:38:28;7.10;;;4.30;;
17727;SDS011;8984;49.268;12.302;2023-07-13T01:40:55;8.68;;;4.18;;
17727;SDS011;8984;49.268;12.302;2023-07-13T01:43:22;7.53;;;3.85;;
17727;SDS011;8984;49.268;12.302;2023-07-13T01:45:49;9.73;;;4.28;;
17727;SDS011;8984;49.268;12.302;2023-07-13T01:48:15;6.60;;;3.92;;
17727;SDS011;8984;49.268;12.302;2023-07-13T01:50:42;4.97;;;3.63;;
17727;SDS011;8984;49.268;12.302;2023-07-13T01:53:09;9.18;;;4.13;;
17727;SDS011;8984;49.268;12.302;2023-07-13T01:55:37;8.80;;;4.43;;
17727;SDS011;8984;49.268;12.302;2023-07-13T01:58:04;6.93;;;3.55;;
17727;SDS011;8984;49.268;12.302;2023-07-13T02:00:32;6.53;;;4.10;;
17727;SDS011;8984;49.268;12.302;2023-07-13T02:02:59;7.22;;;3.70;;
17727;SDS011;8984;49.268;12.302;2023-07-13T02:05:26;6.50;;;4.25;;
17727;SDS011;8984;49.268;12.302;2023-07-13T02:07:52;6.78;;;3.60;;
17727;SDS011;8984;49.268;12.302;2023-07-13T02:10:19;6.72;;;3.70;;
17727;SDS011;8984;49.268;12.302;2023-07-13T02:12:48;6.75;;;3.78;;
17727;SDS011;8984;49.268;12.302;2023-07-13T02:15:16;11.20;;;4.00;;
17727;SDS011;8984;49.268;12.302;2023-07-13T02:31:15;9.55;;;3.75;;
17727;SDS011;8984;49.268;12.302;2023-07-13T02:34:54;6.68;;;4.18;;
17727;SDS011;8984;49.268;12.302;2023-07-13T02:37:59;7.93;;;4.32;;
17727;SDS011;8984;49.268;12.302;2023-07-13T02:40:51;6.72;;;3.85;;
17727;SDS011;8984;49.268;12.302;2023-07-13T02:43:43;6.40;;;4.00;;
17727;SDS011;8984;49.268;12.302;2023-07-13T02:59:47;10.50;;;3.70;;
17727;SDS011;8984;49.268;12.302;2023-07-13T03:02:18;9.15;;;4.50;;
17727;SDS011;8984;49.268;12.302;2023-07-13T03:04:49;6.20;;;4.03;;
17727;SDS011;8984;49.268;12.302;2023-07-13T03:07:16;5.07;;;4.03;;
17727;SDS011;8984;49.268;12.302;2023-07-13T03:09:47;5.47;;;3.92;;
17727;SDS011;8984;49.268;12.302;2023-07-13T03:12:15;7.63;;;4.10;;
17727;SDS011;8984;49.268;12.302;2023-07-13T03:14:58;6.00;;;4.30;;
17727;SDS011;8984;49.268;12.302;2023-07-13T03:17:26;5.65;;;3.90;;
17727;SDS011;8984;49.268;12.302;2023-07-13T03:19:57;8.23;;;3.90;;
17727;SDS011;8984;49.268;12.302;2023-07-13T03:22:29;7.38;;;3.97;;
17727;SDS011;8984;49.268;12.302;2023-07-13T03:25:04;7.80;;;4.05;;
17727;SDS011;8984;49.268;12.302;2023-07-13T03:27:33;6.47;;;3.92;;
17727;SDS011;8984;49.268;12.302;2023-07-13T03:30:03;8.13;;;4.28;;
17727;SDS011;8984;49.268;12.302;2023-07-13T03:32:39;9.85;;;3.60;;
17727;SDS011;8984;49.268;12.302;2023-07-13T03:35:13;8.45;;;4.68;;
17727;SDS011;8984;49.268;12.302;2023-07-13T03:37:46;7.45;;;4.25;;
17727;SDS011;8984;49.268;12.302;2023-07-13T03:40:18;6.22;;;4.13;;
17727;SDS011;8984;49.268;12.302;2023-07-13T03:42:51;8.07;;;4.20;;
17727;SDS011;8984;49.268;12.302;2023-07-13T03:45:24;7.05;;;4.35;;
17727;SDS011;8984;49.268;12.302;2023-07-13T03:47:57;8.38;;;4.97;;
17727;SDS011;8984;49.268;12.302;2023-07-13T03:50:27;7.32;;;4.25;;
17727;SDS011;8984;49.268;12.302;2023-07-13T03:52:55;9.32;;;4.93;;
17727;SDS011;8984;49.268;12.302;2023-07-13T03:55:25;6.47;;;4.35;;
17727;SDS011;8984;49.268;12.302;2023-07-13T03:57:54;12.05;;;4.57;;
17727;SDS011;8984;49.268;12.302;2023-07-13T04:00:44;10.93;;;4.78;;
17727;SDS011;8984;49.268;12.302;2023-07-13T04:03:12;10.38;;;4.30;;
17727;SDS011;8984;49.268;12.302;2023-07-13T04:05:41;7.25;;;4.00;;
17727;SDS011;8984;49.268;12.302;2023-07-13T04:08:11;7.03;;;3.97;;
17727;SDS011;8984;49.268;12.302;2023-07-13T04:11:08;9.30;;;4.32;;
17727;SDS011;8984;49.268;12.302;2023-07-13T04:13:36;9.02;;;4.30;;
17727;SDS011;8984;49.268;12.302;2023-07-13T04:16:05;9.65;;;3.78;;
17727;SDS011;8984;49.268;12.302;2023-07-13T04:18:34;7.53;;;4.38;;
17727;SDS011;8984;49.268;12.302;2023-07-13T04:21:04;8.60;;;4.50;;
17727;SDS011;8984;49.268;12.302;2023-07-13T04:23:32;14.07;;;4.60;;
17727;SDS011;8984;49.268;12.302;2023-07-13T04:26:04;7.18;;;4.10;;
17727;SDS011;8984;49.268;12.302;2023-07-13T04:28:32;11.23;;;4.70;;
17727;SDS011;8984;49.268;12.302;2023-07-13T04:31:02;9.68;;;4.30;;
17727;SDS011;8984;49.268;12.302;2023-07-13T04:33:34;9.60;;;3.95;;
17727;SDS011;8984;49.268;12.302;2023-07-13T04:36:03;6.82;;;4.03;;
17727;SDS011;8984;49.268;12.302;2023-07-13T04:38:46;7.18;;;3.60;;
17727;SDS011;8984;49.268;12.302;2023-07-13T04:41:22;7.80;;;3.45;;
17727;SDS011;8984;49.268;12.302;2023-07-13T04:43:50;5.45;;;3.67;;
17727;SDS011;8984;49.268;12.302;2023-07-13T04:46:24;7.00;;;3.47;;
17727;SDS011;8984;49.268;12.302;2023-07-13T04:48:53;5.25;;;3.33;;
17727;SDS011;8984;49.268;12.302;2023-07-13T04:51:23;4.57;;;3.22;;
17727;SDS011;8984;49.268;12.302;2023-07-13T04:56:26;7.53;;;3.58;;
17727;SDS011;8984;49.268;12.302;2023-07-13T04:58:55;10.32;;;3.63;;
17727;SDS011;8984;49.268;12.302;2023-07-13T05:01:24;10.02;;;3.80;;
17727;SDS011;8984;49.268;12.302;2023-07-13T05:04:07;6.22;;;3.50;;
17727;SDS011;8984;49.268;12.302;2023-07-13T05:06:49;7.57;;;3.67;;
17727;SDS011;8984;49.268;12.302;2023-07-13T05:09:38;5.85;;;3.85;;
17727;SDS011;8984;49.268;12.302;2023-07-13T05:12:36;6.32;;;3.53;;
17727;SDS011;8984;49.268;12.302;2023-07-13T05:15:06;6.60;;;3.38;;
17727;SDS011;8984;49.268;12.302;2023-07-13T05:17:53;7.85;;;3.10;;
17727;SDS011;8984;49.268;12.302;2023-07-13T05:20:22;7.13;;;3.72;;
17727;SDS011;8984;49.268;12.302;2023-07-13T05:22:50;6.15;;;3.50;;
17727;SDS011;8984;49.268;12.302;2023-07-13T05:25:18;4.78;;;3.58;;
17727;SDS011;8984;49.268;12.302;2023-07-13T05:28:03;9.55;;;4.15;;
17727;SDS011;8984;49.268;12.302;2023-07-13T05:30:33;8.88;;;3.50;;
17727;SDS011;8984;49.268;12.302;2023-07-13T05:33:13;7.07;;;3.40;;
17727;SDS011;8984;49.268;12.302;2023-07-13T05:35:51;4.90;;;3.33;;
17727;SDS011;8984;49.268;12.302;2023-07-13T05:38:19;3.97;;;3.30;;
17727;SDS011;8984;49.268;12.302;2023-07-13T05:40:47;6.55;;;3.50;;
17727;SDS011;8984;49.268;12.302;2023-07-13T05:43:28;7.20;;;3.47;;
17727;SDS011;8984;49.268;12.302;2023-07-13T05:45:58;5.13;;;3.10;;
17727;SDS011;8984;49.268;12.302;2023-07-13T05:48:28;4.80;;;2.90;;
17727;SDS011;8984;49.268;12.302;2023-07-13T05:50:59;7.60;;;2.90;;
17727;SDS011;8984;49.268;12.302;2023-07-13T05:53:29;4.35;;;2.30;;
17727;SDS011;8984;49.268;12.302;2023-07-13T05:55:58;6.80;;;2.53;;
17727;SDS011;8984;49.268;12.302;2023-07-13T05:58:39;7.93;;;2.50;;
17727;SDS011;8984;49.268;12.302;2023-07-13T06:01:23;8.77;;;2.20;;
17727;SDS011;8984;49.268;12.302;2023-07-13T06:03:53;6.97;;;2.10;;
17727;SDS011;8984;49.268;12.302;2023-07-13T06:06:21;5.15;;;1.95;;
17727;SDS011;8984;49.268;12.302;2023-07-13T06:08:50;13.35;;;2.40;;
17727;SDS011;8984;49.268;12.302;2023-07-13T06:11:19;6.07;;;2.10;;
17727;SDS011;8984;49.268;12.302;2023-07-13T06:13:55;7.93;;;2.22;;
17727;SDS011;8984;49.268;12.302;2023-07-13T06:16:23;8.38;;;2.10;;
17727;SDS011;8984;49.268;12.302;2023-07-13T06:18:56;4.95;;;1.98;;
17727;SDS011;8984;49.268;12.302;2023-07-13T06:21:25;4.60;;;1.63;;
17727;SDS011;8984;49.268;12.302;2023-07-13T06:23:56;2.95;;;2.00;;
17727;SDS011;8984;49.268;12.302;2023-07-13T06:26:27;3.88;;;1.88;;
17727;SDS011;8984;49.268;12.302;2023-07-13T06:28:57;2.30;;;1.83;;
17727;SDS011;8984;49.268;12.302;2023-07-13T06:31:25;3.70;;;2.00;;
17727;SDS011;8984;49.268;12.302;2023-07-13T06:34:00;4.72;;;1.98;;
17727;SDS011;8984;49.268;12.302;2023-07-13T06:36:31;3.65;;;1.90;;
17727;SDS011;8984;49.268;12.302;2023-07-13T06:39:20;6.10;;;2.20;;
17727;SDS011;8984;49.268;12.302;2023-07-13T06:41:53;4.18;;;1.90;;
17727;SDS011;8984;49.268;12.302;2023-07-13T06:44:25;5.22;;;2.00;;
17727;SDS011;8984;49.268;12.302;2023-07-13T06:52:32;3.72;;;1.65;;
17727;SDS011;8984;49.268;12.302;2023-07-13T06:55:01;4.03;;;1.90;;
17727;SDS011;8984;49.268;12.302;2023-07-13T06:57:32;5.50;;;1.80;;
17727;SDS011;8984;49.268;12.302;2023-07-13T07:00:03;4.28;;;2.00;;
17727;SDS011;8984;49.268;12.302;2023-07-13T07:02:35;5.15;;;2.10;;
17727;SDS011;8984;49.268;12.302;2023-07-13T07:05:25;5.55;;;2.40;;
17727;SDS011;8984;49.268;12.302;2023-07-13T07:07:54;6.38;;;1.90;;
17727;SDS011;8984;49.268;12.302;2023-07-13T07:13:19;6.55;;;2.10;;
17727;SDS011;8984;49.268;12.302;2023-07-13T07:15:54;5.10;;;1.83;;
17727;SDS011;8984;49.268;12.302;2023-07-13T07:18:28;3.40;;;1.75;;
17727;SDS011;8984;49.268;12.302;2023-07-13T07:20:59;7.72;;;2.15;;
17727;SDS011;8984;49.268;12.302;2023-07-13T07:23:31;4.28;;;1.83;;
17727;SDS011;8984;49.268;12.302;2023-07-13T07:26:00;5.30;;;2.28;;
17727;SDS011;8984;49.268;12.302;2023-07-13T07:28:35;4.68;;;1.85;;
17727;SDS011;8984;49.268;12.302;2023-07-13T07:31:08;4.50;;;1.67;;
17727;SDS011;8984;49.268;12.302;2023-07-13T07:33:36;3.92;;;1.67;;
17727;SDS011;8984;49.268;12.302;2023-07-13T07:38:57;2.20;;;1.10;;
17727;SDS011;8984;49.268;12.302;2023-07-13T07:41:31;1.75;;;1.20;;
17727;SDS011;8984;49.268;12.302;2023-07-13T07:44:08;3.35;;;1.55;;
17727;SDS011;8984;49.268;12.302;2023-07-13T07:46:43;1.88;;;1.20;;
17727;SDS011;8984;49.268;12.302;2023-07-13T07:49:28;2.50;;;1.15;;
17727;SDS011;8984;49.268;12.302;2023-07-13T07:51:58;9.02;;;1.40;;
17727;SDS011;8984;49.268;12.302;2023-07-13T07:54:28;3.10;;;1.10;;
17727;SDS011;8984;49.268;12.302;2023-07-13T07:56:56;3.28;;;1.13;;
17727;SDS011;8984;49.268;12.302;2023-07-13T07:59:35;1.80;;;1.10;;
17727;SDS011;8984;49.268;12.302;2023-07-13T08:02:09;1.65;;;1.00;;
17727;SDS011;8984;49.268;12.302;2023-07-13T08:04:43;3.78;;;1.20;;
17727;SDS011;8984;49.268;12.302;2023-07-13T08:07:15;3.90;;;1.13;;
17727;SDS011;8984;49.268;12.302;2023-07-13T08:09:47;4.63;;;1.20;;
17727;SDS011;8984;49.268;12.302;2023-07-13T08:12:20;3.30;;;1.20;;
17727;SDS011;8984;49.268;12.302;2023-07-13T08:14:49;2.95;;;1.23;;
17727;SDS011;8984;49.268;12.302;2023-07-13T08:17:26;2.05;;;0.90;;
17727;SDS011;8984;49.268;12.302;2023-07-13T08:20:05;3.97;;;1.10;;
17727;SDS011;8984;49.268;12.302;2023-07-13T08:22:39;3.00;;;1.05;;
17727;SDS011;8984;49.268;12.302;2023-07-13T08:25:18;5.95;;;1.10;;
17727;SDS011;8984;49.268;12.302;2023-07-13T08:28:02;4.68;;;1.25;;
17727;SDS011;8984;49.268;12.302;2023-07-13T08:30:36;2.60;;;0.98;;
17727;SDS011;8984;49.268;12.302;2023-07-13T08:33:09;3.42;;;1.10;;
17727;SDS011;8984;49.268;12.302;2023-07-13T08:35:49;3.55;;;1.27;;
17727;SDS011;8984;49.268;12.302;2023-07-13T08:38:21;3.42;;;1.25;;
17727;SDS011;8984;49.268;12.302;2023-07-13T08:40:56;2.60;;;1.35;;
17727;SDS011;8984;49.268;12.302;2023-07-13T08:43:25;5.63;;;1.08;;
17727;SDS011;8984;49.268;12.302;2023-07-13T08:45:58;4.60;;;1.25;;
17727;SDS011;8984;49.268;12.302;2023-07-13T08:48:40;3.72;;;0.88;;
17727;SDS011;8984;49.268;12.302;2023-07-13T08:51:14;1.73;;;1.00;;
17727;SDS011;8984;49.268;12.302;2023-07-13T08:53:57;1.45;;;1.05;;
17727;SDS011;8984;49.268;12.302;2023-07-13T08:56:35;2.75;;;1.02;;
17727;SDS011;8984;49.268;12.302;2023-07-13T08:59:14;6.00;;;1.23;;
17727;SDS011;8984;49.268;12.302;2023-07-13T09:01:58;2.28;;;1.02;;
17727;SDS011;8984;49.268;12.302;2023-07-13T09:04:37;2.67;;;1.40;;
17727;SDS011;8984;49.268;12.302;2023-07-13T09:07:14;3.40;;;1.20;;
17727;SDS011;8984;49.268;12.302;2023-07-13T09:09:53;1.60;;;0.90;;
17727;SDS011;8984;49.268;12.302;2023-07-13T09:12:34;2.38;;;1.00;;
17727;SDS011;8984;49.268;12.302;2023-07-13T09:15:20;4.85;;;1.10;;
17727;SDS011;8984;49.268;12.302;2023-07-13T09:17:52;2.67;;;1.02;;
17727;SDS011;8984;49.268;12.302;2023-07-13T09:20:26;2.65;;;1.20;;
17727;SDS011;8984;49.268;12.302;2023-07-13T09:23:00;4.45;;;0.93;;
17727;SDS011;8984;49.268;12.302;2023-07-13T09:26:02;1.92;;;1.00;;
17727;SDS011;8984;49.268;12.302;2023-07-13T09:28:37;3.17;;;0.88;;
17727;SDS011;8984;49.268;12.302;2023-07-13T09:31:11;2.72;;;1.10;;
17727;SDS011;8984;49.268;12.302;2023-07-13T09:34:10;2.90;;;1.17;;
17727;SDS011;8984;49.268;12.302;2023-07-13T09:36:38;2.63;;;1.17;;
17727;SDS011;8984;49.268;12.302;2023-07-13T09:39:14;2.65;;;1.00;;
17727;SDS011;8984;49.268;12.302;2023-07-13T09:41:51;7.70;;;1.30;;
17727;SDS011;8984;49.268;12.302;2023-07-13T09:44:28;3.90;;;1.20;;
17727;SDS011;8984;49.268;12.302;2023-07-13T09:46:58;3.30;;;1.20;;
17727;SDS011;8984;49.268;12.302;2023-07-13T09:49:28;2.63;;;1.00;;
17727;SDS011;8984;49.268;12.302;2023-07-13T09:52:00;3.72;;;1.13;;
17727;SDS011;8984;49.268;12.302;2023-07-13T09:54:35;5.72;;;1.10;;
17727;SDS011;8984;49.268;12.302;2023-07-13T09:57:11;2.80;;;1.65;;
17727;SDS011;8984;49.268;12.302;2023-07-13T09:59:43;1.65;;;1.00;;
17727;SDS011;8984;49.268;12.302;2023-07-13T10:02:31;4.82;;;1.05;;
17727;SDS011;8984;49.268;12.302;2023-07-13T10:05:13;2.90;;;1.10;;
17727;SDS011;8984;49.268;12.302;2023-07-13T10:07:53;2.58;;;1.02;;
17727;SDS011;8984;49.268;12.302;2023-07-13T10:10:26;1.98;;;1.15;;
17727;SDS011;8984;49.268;12.302;2023-07-13T10:13:02;2.03;;;0.98;;
17727;SDS011;8984;49.268;12.302;2023-07-13T10:15:54;3.85;;;1.08;;
17727;SDS011;8984;49.268;12.302;2023-07-13T10:18:23;2.17;;;1.00;;
17727;SDS011;8984;49.268;12.302;2023-07-13T10:20:58;3.20;;;1.30;;
17727;SDS011;8984;49.268;12.302;2023-07-13T10:24:12;2.33;;;1.00;;
17727;SDS011;8984;49.268;12.302;2023-07-13T10:26:46;3.17;;;1.40;;
17727;SDS011;8984;49.268;12.302;2023-07-13T10:29:18;3.38;;;0.90;;
17727;SDS011;8984;49.268;12.302;2023-07-13T10:31:48;1.40;;;0.90;;
17727;SDS011;8984;49.268;12.302;2023-07-13T10:34:15;4.05;;;1.13;;
17727;SDS011;8984;49.268;12.302;2023-07-13T10:36:43;4.10;;;1.15;;
17727;SDS011;8984;49.268;12.302;2023-07-13T10:39:15;2.22;;;1.10;;
17727;SDS011;8984;49.268;12.302;2023-07-13T10:41:44;2.92;;;1.17;;
17727;SDS011;8984;49.268;12.302;2023-07-13T10:44:18;2.85;;;1.10;;
17727;SDS011;8984;49.268;12.302;2023-07-13T10:46:50;4.20;;;1.02;;
17727;SDS011;8984;49.268;12.302;2023-07-13T10:49:19;3.63;;;1.13;;
17727;SDS011;8984;49.268;12.302;2023-07-13T10:51:47;2.72;;;1.23;;
17727;SDS011;8984;49.268;12.302;2023-07-13T10:54:16;3.05;;;1.20;;
17727;SDS011;8984;49.268;12.302;2023-07-13T10:56:49;2.65;;;1.00;;
17727;SDS011;8984;49.268;12.302;2023-07-13T10:59:26;3.28;;;1.17;;
17727;SDS011;8984;49.268;12.302;2023-07-13T11:01:56;1.48;;;0.90;;
17727;SDS011;8984;49.268;12.302;2023-07-13T11:04:25;4.10;;;0.95;;
17727;SDS011;8984;49.268;12.302;2023-07-13T11:06:56;2.67;;;1.10;;
17727;SDS011;8984;49.268;12.302;2023-07-13T11:09:37;2.72;;;1.10;;
17727;SDS011;8984;49.268;12.302;2023-07-13T11:12:10;5.45;;;1.23;;
17727;SDS011;8984;49.268;12.302;2023-07-13T11:15:10;2.53;;;1.00;;
17727;SDS011;8984;49.268;12.302;2023-07-13T11:17:46;4.03;;;1.17;;
17727;SDS011;8984;49.268;12.302;2023-07-13T11:20:22;2.58;;;1.02;;
17727;SDS011;8984;49.268;12.302;2023-07-13T11:23:07;3.40;;;1.20;;
17727;SDS011;8984;49.268;12.302;2023-07-13T11:26:02;3.33;;;1.15;;
17727;SDS011;8984;49.268;12.302;2023-07-13T11:28:32;3.85;;;1.58;;
17727;SDS011;8984;49.268;12.302;2023-07-13T11:31:01;5.05;;;1.05;;
17727;SDS011;8984;49.268;12.302;2023-07-13T11:33:47;3.63;;;1.15;;
17727;SDS011;8984;49.268;12.302;2023-07-13T11:36:18;2.28;;;1.00;;
17727;SDS011;8984;49.268;12.302;2023-07-13T11:38:57;2.97;;;0.90;;
17727;SDS011;8984;49.268;12.302;2023-07-13T11:41:28;4.15;;;1.15;;
17727;SDS011;8984;49.268;12.302;2023-07-13T11:44:01;3.45;;;1.10;;
17727;SDS011;8984;49.268;12.302;2023-07-13T11:46:32;1.50;;;0.85;;
17727;SDS011;8984;49.268;12.302;2023-07-13T11:48:59;2.78;;;1.08;;
17727;SDS011;8984;49.268;12.302;2023-07-13T11:51:27;1.70;;;0.95;;
17727;SDS011;8984;49.268;12.302;2023-07-13T11:53:56;2.20;;;0.80;;
17727;SDS011;8984;49.268;12.302;2023-07-13T11:56:28;2.03;;;0.90;;
17727;SDS011;8984;49.268;12.302;2023-07-13T11:58:57;3.50;;;1.15;;
17727;SDS011;8984;49.268;12.302;2023-07-13T12:01:30;4.65;;;0.98;;
17727;SDS011;8984;49.268;12.302;2023-07-13T12:03:58;3.55;;;0.95;;
17727;SDS011;8984;49.268;12.302;2023-07-13T12:06:28;1.95;;;0.90;;
17727;SDS011;8984;49.268;12.302;2023-07-13T12:08:57;2.28;;;0.88;;
17727;SDS011;8984;49.268;12.302;2023-07-13T12:11:25;1.73;;;0.80;;
17727;SDS011;8984;49.268;12.302;2023-07-13T12:13:54;2.75;;;0.80;;
17727;SDS011;8984;49.268;12.302;2023-07-13T12:16:23;2.55;;;0.80;;
17727;SDS011;8984;49.268;12.302;2023-07-13T12:18:55;2.00;;;0.90;;
17727;SDS011;8984;49.268;12.302;2023-07-13T12:21:24;1.77;;;0.90;;
17727;SDS011;8984;49.268;12.302;2023-07-13T12:23:56;2.75;;;1.00;;
17727;SDS011;8984;49.268;12.302;2023-07-13T12:26:23;3.28;;;1.02;;
17727;SDS011;8984;49.268;12.302;2023-07-13T12:28:52;4.47;;;2.70;;
17727;SDS011;8984;49.268;12.302;2023-07-13T12:31:31;6.00;;;2.80;;
17727;SDS011;8984;49.268;12.302;2023-07-13T12:34:01;4.30;;;1.33;;
17727;SDS011;8984;49.268;12.302;2023-07-13T12:36:33;2.70;;;0.82;;
17727;SDS011;8984;49.268;12.302;2023-07-13T12:39:03;2.85;;;1.23;;
17727;SDS011;8984;49.268;12.302;2023-07-13T12:41:38;2.40;;;1.00;;
17727;SDS011;8984;49.268;12.302;2023-07-13T12:44:09;2.47;;;1.00;;
17727;SDS011;8984;49.268;12.302;2023-07-13T12:46:38;4.07;;;1.08;;
17727;SDS011;8984;49.268;12.302;2023-07-13T12:49:05;2.55;;;0.90;;
17727;SDS011;8984;49.268;12.302;2023-07-13T12:51:33;4.80;;;1.10;;
17727;SDS011;8984;49.268;12.302;2023-07-13T12:54:05;3.50;;;0.93;;
17727;SDS011;8984;49.268;12.302;2023-07-13T12:56:41;2.15;;;0.82;;
17727;SDS011;8984;49.268;12.302;2023-07-13T12:59:11;2.08;;;0.95;;
17727;SDS011;8984;49.268;12.302;2023-07-13T13:01:44;3.67;;;1.00;;
17727;SDS011;8984;49.268;12.302;2023-07-13T13:04:12;1.70;;;0.90;;
17727;SDS011;8984;49.268;12.302;2023-07-13T13:06:40;2.58;;;1.05;;
17727;SDS011;8984;49.268;12.302;2023-07-13T13:09:09;4.22;;;1.05;;
17727;SDS011;8984;49.268;12.302;2023-07-13T13:11:39;2.33;;;1.00;;
17727;SDS011;8984;49.268;12.302;2023-07-13T13:14:07;2.42;;;1.10;;
17727;SDS011;8984;49.268;12.302;2023-07-13T13:16:37;2.47;;;0.90;;
17727;SDS011;8984;49.268;12.302;2023-07-13T13:19:12;4.38;;;1.10;;
17727;SDS011;8984;49.268;12.302;2023-07-13T13:21:42;3.17;;;1.10;;
17727;SDS011;8984;49.268;12.302;2023-07-13T13:24:11;2.20;;;1.00;;
17727;SDS011;8984;49.268;12.302;2023-07-13T13:26:39;1.85;;;0.90;;
17727;SDS011;8984;49.268;12.302;2023-07-13T13:29:09;3.15;;;1.02;;
17727;SDS011;8984;49.268;12.302;2023-07-13T13:31:40;1.50;;;0.90;;
17727;SDS011;8984;49.268;12.302;2023-07-13T13:34:08;2.35;;;0.90;;
17727;SDS011;8984;49.268;12.302;2023-07-13T13:36:36;2.28;;;0.90;;
17727;SDS011;8984;49.268;12.302;2023-07-13T13:39:05;2.75;;;1.10;;
17727;SDS011;8984;49.268;12.302;2023-07-13T13:41:45;3.83;;;1.02;;
17727;SDS011;8984;49.268;12.302;2023-07-13T13:44:13;1.77;;;1.10;;
17727;SDS011;8984;49.268;12.302;2023-07-13T13:46:42;3.45;;;1.00;;
17727;SDS011;8984;49.268;12.302;2023-07-13T13:49:13;3.60;;;1.00;;
17727;SDS011;8984;49.268;12.302;2023-07-13T13:51:42;3.78;;;1.00;;
17727;SDS011;8984;49.268;12.302;2023-07-13T13:54:10;4.28;;;0.98;;
17727;SDS011;8984;49.268;12.302;2023-07-13T13:56:39;5.10;;;1.10;;
17727;SDS011;8984;49.268;12.302;2023-07-13T13:59:06;2.10;;;1.00;;
17727;SDS011;8984;49.268;12.302;2023-07-13T14:01:34;4.13;;;0.85;;
17727;SDS011;8984;49.268;12.302;2023-07-13T14:04:04;4.05;;;1.10;;
17727;SDS011;8984;49.268;12.302;2023-07-13T14:06:31;1.85;;;1.15;;
17727;SDS011;8984;49.268;12.302;2023-07-13T14:08:59;4.20;;;0.98;;
17727;SDS011;8984;49.268;12.302;2023-07-13T14:11:26;2.05;;;1.20;;
17727;SDS011;8984;49.268;12.302;2023-07-13T14:13:54;5.63;;;0.93;;
17727;SDS011;8984;49.268;12.302;2023-07-13T14:16:32;3.40;;;1.10;;
17727;SDS011;8984;49.268;12.302;2023-07-13T14:19:00;1.75;;;1.10;;
17727;SDS011;8984;49.268;12.302;2023-07-13T14:21:28;1.77;;;1.00;;
17727;SDS011;8984;49.268;12.302;2023-07-13T14:23:55;2.08;;;1.00;;
17727;SDS011;8984;49.268;12.302;2023-07-13T14:26:23;3.88;;;1.08;;
17727;SDS011;8984;49.268;12.302;2023-07-13T14:28:53;5.22;;;1.15;;
17727;SDS011;8984;49.268;12.302;2023-07-13T14:31:24;3.08;;;1.10;;
17727;SDS011;8984;49.268;12.302;2023-07-13T14:33:54;3.38;;;1.00;;
17727;SDS011;8984;49.268;12.302;2023-07-13T14:36:22;1.30;;;0.90;;
17727;SDS011;8984;49.268;12.302;2023-07-13T14:38:54;1.20;;;0.90;;
17727;SDS011;8984;49.268;12.302;2023-07-13T14:41:21;2.75;;;0.90;;
17727;SDS011;8984;49.268;12.302;2023-07-13T14:43:47;6.63;;;1.33;;
17727;SDS011;8984;49.268;12.302;2023-07-13T14:46:26;4.72;;;1.00;;
17727;SDS011;8984;49.268;12.302;2023-07-13T14:48:58;3.50;;;1.38;;
17727;SDS011;8984;49.268;12.302;2023-07-13T14:51:28;2.25;;;1.00;;
17727;SDS011;8984;49.268;12.302;2023-07-13T14:53:57;3.85;;;0.93;;
17727;SDS011;8984;49.268;12.302;2023-07-13T14:56:24;2.33;;;1.02;;
17727;SDS011;8984;49.268;12.302;2023-07-13T14:58:51;2.33;;;1.13;;
17727;SDS011;8984;49.268;12.302;2023-07-13T15:01:18;2.45;;;1.00;;
17727;SDS011;8984;49.268;12.302;2023-07-13T15:03:48;3.53;;;1.10;;
17727;SDS011;8984;49.268;12.302;2023-07-13T15:06:19;2.15;;;0.90;;
17727;SDS011;8984;49.268;12.302;2023-07-13T15:08:46;2.08;;;1.20;;
17727;SDS011;8984;49.268;12.302;2023-07-13T15:11:15;2.88;;;1.10;;
17727;SDS011;8984;49.268;12.302;2023-07-13T15:13:43;3.33;;;1.10;;
17727;SDS011;8984;49.268;12.302;2023-07-13T15:16:13;3.25;;;1.00;;
17727;SDS011;8984;49.268;12.302;2023-07-13T15:18:43;6.78;;;1.38;;
17727;SDS011;8984;49.268;12.302;2023-07-13T15:21:11;3.10;;;1.02;;
17727;SDS011;8984;49.268;12.302;2023-07-13T15:23:41;4.13;;;1.10;;
17727;SDS011;8984;49.268;12.302;2023-07-13T15:26:10;4.13;;;1.05;;
17727;SDS011;8984;49.268;12.302;2023-07-13T15:28:40;2.83;;;0.98;;
17727;SDS011;8984;49.268;12.302;2023-07-13T15:31:15;2.53;;;1.10;;
17727;SDS011;8984;49.268;12.302;2023-07-13T15:33:45;5.22;;;1.08;;
17727;SDS011;8984;49.268;12.302;2023-07-13T15:36:13;3.17;;;1.25;;
17727;SDS011;8984;49.268;12.302;2023-07-13T15:38:40;4.05;;;1.10;;
17727;SDS011;8984;49.268;12.302;2023-07-13T15:41:10;5.63;;;0.90;;
17727;SDS011;8984;49.268;12.302;2023-07-13T15:43:44;1.98;;;0.90;;
17727;SDS011;8984;49.268;12.302;2023-07-13T15:46:11;4.35;;;1.10;;
17727;SDS011;8984;49.268;12.302;2023-07-13T15:48:39;4.57;;;1.13;;
17727;SDS011;8984;49.268;12.302;2023-07-13T15:51:08;4.25;;;1.27;;
17727;SDS011;8984;49.268;12.302;2023-07-13T15:53:38;3.78;;;1.35;;
17727;SDS011;8984;49.268;12.302;2023-07-13T15:56:11;2.22;;;1.25;;
17727;SDS011;8984;49.268;12.302;2023-07-13T15:58:45;2.35;;;0.88;;
17727;SDS011;8984;49.268;12.302;2023-07-13T16:01:12;3.17;;;1.17;;